Schedule Details

Flight Number: ASX130
Departure: Warszawa Chopina (EPWA) at 13:10Z
Arrival: Princess Juliana (TNCM) at 22:10Z

Weather Information
EPWA 241200Z 03013KT 9999 FEW032 M04/M12 Q1025 R11/2/0295 NOSIG
TNCM 241200Z 10012KT 060V140 9999 SCT018 25/18 Q1018 A3007 NOSIG

Schedule Frequency

Route Map